Time;durP1;ratioP1;P1;durP2;ratioP2;P2;SDS_P1;SDS_P2;PMS_P1;PMS_P2;Temp;Humidity;BMP_temperature;BMP_pressure;BME280_temperature;BME280_humidity;BME280_pressure;Samples;Min_cycle;Max_cycle;Signal;HPM_P1;HPM_P2
2022/11/17 00:01:07;;;;;;;3.72;1.17;;;;;;;;;;5033668;28;20456;-64
2022/11/17 00:03:37;;;;;;;4.93;1.38;;;;;;;;;;5049887;28;20056;-65
2022/11/17 00:06:07;;;;;;;7.55;1.33;;;;;;;;;;5049639;28;20064;-64
2022/11/17 00:08:37;;;;;;;5.65;1.52;;;;;;;;;;5009952;28;20496;-65
2022/11/17 00:11:08;;;;;;;14.57;1.42;;;;;;;;;;4989826;28;20545;-65
2022/11/17 00:16:26;;;;;;;2.72;0.73;;;;;;;;;;4973759;28;20042;-63
2022/11/17 00:21:45;;;;;;;5.80;1.10;;;;;;;;;;4970763;28;20055;-63
2022/11/17 00:24:16;;;;;;;4.88;0.82;;;;;;;;;;4947673;28;20058;-63
2022/11/17 00:27:01;;;;;;;9.48;1.05;;;;;;;;;;4916924;29;20059;-64
2022/11/17 00:29:31;;;;;;;7.10;0.80;;;;;;;;;;4932355;29;20059;-63
2022/11/17 00:35:05;;;;;;;4.70;0.82;;;;;;;;;;4932183;29;20064;-63
2022/11/17 00:38:14;;;;;;;3.75;0.90;;;;;;;;;;4932243;29;20052;-63
2022/11/17 00:40:29;;;;;;;2.40;1.00;;;;;;;;;;4932098;29;20086;-63
2022/11/17 00:42:58;;;;;;;3.15;1.10;;;;;;;;;;4909536;29;20053;-64
2022/11/17 00:45:29;;;;;;;5.72;1.02;;;;;;;;;;4897910;29;20109;-63
2022/11/17 00:47:59;;;;;;;5.15;0.73;;;;;;;;;;4919875;29;20066;-63
2022/11/17 00:50:29;;;;;;;4.53;1.27;;;;;;;;;;4951329;29;20059;-63
2022/11/17 00:52:59;;;;;;;3.88;0.90;;;;;;;;;;4936893;28;20055;-63
2022/11/17 00:55:29;;;;;;;8.05;0.88;;;;;;;;;;4990803;28;20126;-63
2022/11/17 00:57:59;;;;;;;5.07;1.02;;;;;;;;;;4977089;28;20058;-63
2022/11/17 01:00:29;;;;;;;5.63;1.23;;;;;;;;;;5009705;28;20061;-64
2022/11/17 01:02:59;;;;;;;5.40;0.90;;;;;;;;;;5008148;28;20049;-64
2022/11/17 01:05:29;;;;;;;2.85;1.23;;;;;;;;;;4976619;28;20437;-63
2022/11/17 01:08:01;;;;;;;7.95;1.13;;;;;;;;;;4970047;28;20061;-64
2022/11/17 01:10:33;;;;;;;3.97;0.80;;;;;;;;;;4954143;28;20454;-64
2022/11/17 01:13:03;;;;;;;5.85;1.00;;;;;;;;;;4922710;28;20078;-64
2022/11/17 01:15:34;;;;;;;2.25;0.80;;;;;;;;;;4931752;29;20055;-63
2022/11/17 01:18:04;;;;;;;5.57;1.02;;;;;;;;;;4931882;29;20563;-64
2022/11/17 01:20:35;;;;;;;7.25;1.30;;;;;;;;;;4949903;28;20054;-63
2022/11/17 01:23:05;;;;;;;10.80;1.33;;;;;;;;;;4970197;28;20055;-63
2022/11/17 01:25:37;;;;;;;4.80;1.10;;;;;;;;;;4950707;29;20058;-64
2022/11/17 01:28:07;;;;;;;2.22;0.95;;;;;;;;;;4950834;28;20412;-66
2022/11/17 01:30:37;;;;;;;5.53;1.20;;;;;;;;;;4953380;28;20503;-64
2022/11/17 01:33:07;;;;;;;2.30;0.82;;;;;;;;;;4973442;28;20054;-65
2022/11/17 01:35:37;;;;;;;7.25;1.17;;;;;;;;;;4973897;28;20503;-64
2022/11/17 01:38:07;;;;;;;6.60;1.13;;;;;;;;;;4957354;28;20719;-64
2022/11/17 01:40:38;;;;;;;6.40;1.92;;;;;;;;;;4944546;28;20055;-65
2022/11/17 01:43:11;;;;;;;7.18;0.82;;;;;;;;;;4935197;29;20062;-64
2022/11/17 01:45:41;;;;;;;6.22;0.95;;;;;;;;;;4944942;29;20077;-65
2022/11/17 01:48:14;;;;;;;4.78;0.98;;;;;;;;;;4954232;29;20047;-67
2022/11/17 01:50:48;;;;;;;7.35;1.33;;;;;;;;;;4954165;29;20066;-65
2022/11/17 01:53:21;;;;;;;7.68;1.00;;;;;;;;;;4954047;29;20055;-64
2022/11/17 01:55:58;;;;;;;6.85;1.50;;;;;;;;;;4903285;29;20059;-64
2022/11/17 01:58:34;;;;;;;11.63;1.30;;;;;;;;;;4946680;28;20059;-65
2022/11/17 02:01:05;;;;;;;4.60;1.08;;;;;;;;;;4922290;29;20066;-64
2022/11/17 02:03:38;;;;;;;3.85;0.90;;;;;;;;;;4934433;28;20071;-64
2022/11/17 02:06:17;;;;;;;7.05;1.15;;;;;;;;;;4973214;28;20058;-64
2022/11/17 02:08:50;;;;;;;4.97;1.52;;;;;;;;;;4953682;28;20054;-64
2022/11/17 02:11:23;;;;;;;3.65;0.90;;;;;;;;;;4965991;28;20059;-64
2022/11/17 02:13:55;;;;;;;3.55;1.10;;;;;;;;;;4992305;28;20053;-65
2022/11/17 02:16:25;;;;;;;7.22;1.17;;;;;;;;;;4992548;28;20078;-65
2022/11/17 02:18:55;;;;;;;4.88;1.35;;;;;;;;;;5022882;28;20053;-64
2022/11/17 02:22:06;;;;;;;5.65;0.93;;;;;;;;;;4998936;28;20129;-64
2022/11/17 02:25:16;;;;;;;7.45;1.13;;;;;;;;;;5031850;28;20619;-64
2022/11/17 02:28:37;;;;;;;5.07;1.02;;;;;;;;;;4970454;28;20151;-64
2022/11/17 02:31:18;;;;;;;4.43;1.10;;;;;;;;;;4918857;29;20067;-64
2022/11/17 02:34:28;;;;;;;3.35;0.90;;;;;;;;;;4902707;29;20055;-65
2022/11/17 02:37:03;;;;;;;9.25;1.48;;;;;;;;;;4914984;29;20056;-64
2022/11/17 02:39:47;;;;;;;4.40;1.23;;;;;;;;;;4915327;29;20569;-66
2022/11/17 02:46:23;;;;;;;5.13;1.23;;;;;;;;;;4858910;29;20053;-65
2022/11/17 02:49:03;;;;;;;5.43;1.40;;;;;;;;;;4840334;29;20061;-64
2022/11/17 02:51:35;;;;;;;10.57;1.27;;;;;;;;;;4840492;29;20050;-64
2022/11/17 02:54:06;;;;;;;6.25;1.30;;;;;;;;;;4825082;29;20081;-66
2022/11/17 02:56:44;;;;;;;4.57;1.02;;;;;;;;;;4840573;29;20065;-65
2022/11/17 02:59:19;;;;;;;6.00;1.20;;;;;;;;;;4840357;29;20065;-64
2022/11/17 03:02:17;;;;;;;3.20;1.02;;;;;;;;;;4840149;29;20061;-65
2022/11/17 03:05:05;;;;;;;2.58;1.00;;;;;;;;;;4840316;29;20104;-64
2022/11/17 03:07:39;;;;;;;2.88;1.30;;;;;;;;;;4851134;29;20060;-64
2022/11/17 03:10:48;;;;;;;4.97;1.08;;;;;;;;;;4857759;29;20056;-65
2022/11/17 03:13:27;;;;;;;3.42;1.05;;;;;;;;;;4858331;29;20065;-66
2022/11/17 03:16:30;;;;;;;2.83;1.20;;;;;;;;;;4840233;29;20053;-65
2022/11/17 03:19:38;;;;;;;5.97;1.08;;;;;;;;;;4821567;29;20070;-65
2022/11/17 03:22:31;;;;;;;6.80;1.10;;;;;;;;;;4839942;29;20061;-65
2022/11/17 03:25:07;;;;;;;4.30;1.10;;;;;;;;;;4843285;29;20065;-66
2022/11/17 03:27:42;;;;;;;4.68;1.10;;;;;;;;;;4858203;29;20054;-65
2022/11/17 03:30:13;;;;;;;3.28;0.80;;;;;;;;;;4858401;29;20054;-65
2022/11/17 03:32:49;;;;;;;5.10;1.13;;;;;;;;;;4858138;29;20518;-65
2022/11/17 03:35:27;;;;;;;3.80;1.23;;;;;;;;;;4858099;29;20479;-64
2022/11/17 03:38:04;;;;;;;6.65;1.27;;;;;;;;;;4858051;29;20073;-64
2022/11/17 03:40:39;;;;;;;4.90;1.00;;;;;;;;;;4847898;29;20048;-67
2022/11/17 03:43:13;;;;;;;4.68;1.23;;;;;;;;;;4895292;29;20187;-64
2022/11/17 03:45:50;;;;;;;3.20;1.08;;;;;;;;;;4857543;29;20042;-64
2022/11/17 03:48:33;;;;;;;5.97;1.35;;;;;;;;;;4857618;29;20061;-66
2022/11/17 03:51:10;;;;;;;3.85;1.05;;;;;;;;;;4867658;29;20049;-65
2022/11/17 03:53:41;;;;;;;4.35;1.25;;;;;;;;;;4886130;29;20064;-65
2022/11/17 03:56:32;;;;;;;5.00;1.20;;;;;;;;;;4928245;28;20058;-67
2022/11/17 03:59:10;;;;;;;7.50;1.08;;;;;;;;;;4932623;29;20499;-66
2022/11/17 04:01:42;;;;;;;3.40;0.90;;;;;;;;;;4932838;29;20055;-65
2022/11/17 04:04:17;;;;;;;5.97;1.10;;;;;;;;;;4879117;29;20053;-65
2022/11/17 04:06:51;;;;;;;5.43;0.93;;;;;;;;;;4894625;29;20409;-65
2022/11/17 04:09:22;;;;;;;7.18;1.42;;;;;;;;;;4913731;29;20056;-66
2022/11/17 04:17:29;;;;;;;10.30;1.40;;;;;;;;;;4882610;29;20056;-68
2022/11/17 04:19:59;;;;;;;7.03;1.48;;;;;;;;;;4882035;29;20064;-65
2022/11/17 04:22:30;;;;;;;5.75;1.15;;;;;;;;;;4918429;29;20063;-66
2022/11/17 04:25:00;;;;;;;7.90;1.15;;;;;;;;;;4916530;29;20063;-66
2022/11/17 04:30:18;;;;;;;3.78;1.10;;;;;;;;;;4970696;28;20187;-65
2022/11/17 04:32:48;;;;;;;3.72;1.02;;;;;;;;;;4954547;28;20522;-65
2022/11/17 04:35:20;;;;;;;2.08;0.88;;;;;;;;;;4970522;28;20054;-66
2022/11/17 04:37:51;;;;;;;3.50;0.93;;;;;;;;;;4989492;28;20050;-65
2022/11/17 04:40:20;;;;;;;2.40;0.95;;;;;;;;;;4989929;28;20062;-65
2022/11/17 04:42:51;;;;;;;2.33;1.10;;;;;;;;;;4972602;28;20061;-66
2022/11/17 04:45:22;;;;;;;5.10;1.23;;;;;;;;;;4970597;28;20051;-65
2022/11/17 04:47:53;;;;;;;4.82;1.20;;;;;;;;;;4973863;28;20046;-65
2022/11/17 04:50:23;;;;;;;5.20;1.20;;;;;;;;;;5023323;28;20512;-65
2022/11/17 04:52:53;;;;;;;3.97;1.10;;;;;;;;;;5029495;28;20088;-67
2022/11/17 04:55:23;;;;;;;5.68;1.17;;;;;;;;;;5013159;28;20061;-65
2022/11/17 04:57:54;;;;;;;2.97;1.02;;;;;;;;;;5013315;28;20428;-67
2022/11/17 05:00:24;;;;;;;3.67;1.13;;;;;;;;;;5009280;28;20080;-65
2022/11/17 05:02:54;;;;;;;6.43;1.30;;;;;;;;;;5028890;28;20060;-65
2022/11/17 05:05:24;;;;;;;2.60;1.00;;;;;;;;;;5026795;28;20058;-65
2022/11/17 05:07:53;;;;;;;5.15;1.20;;;;;;;;;;4997409;28;20057;-65
2022/11/17 05:13:20;;;;;;;6.50;1.10;;;;;;;;;;5013202;28;20065;-65
2022/11/17 05:13:26;;;;;;;1.95;0.90;;;;;;;;;;5001286;28;20061;-65
2022/11/17 05:18:46;;;;;;;2.95;0.77;;;;;;;;;;4993564;28;20126;-65
2022/11/17 05:21:16;;;;;;;2.42;0.93;;;;;;;;;;5009555;28;20073;-65
2022/11/17 05:23:55;;;;;;;2.13;1.05;;;;;;;;;;4973684;28;20051;-65
2022/11/17 05:26:28;;;;;;;1.83;0.80;;;;;;;;;;4974049;28;20055;-65
2022/11/17 05:29:03;;;;;;;7.43;0.93;;;;;;;;;;4973919;28;20051;-65
2022/11/17 05:31:34;;;;;;;9.50;1.65;;;;;;;;;;4974038;28;20067;-65
2022/11/17 05:34:07;;;;;;;3.05;1.23;;;;;;;;;;4973904;28;20415;-65
2022/11/17 05:36:38;;;;;;;2.30;1.00;;;;;;;;;;4990061;28;20067;-65
2022/11/17 05:39:09;;;;;;;5.75;1.60;;;;;;;;;;5011021;28;20062;-65
2022/11/17 05:41:40;;;;;;;2.97;0.95;;;;;;;;;;4998975;28;20053;-66
2022/11/17 05:44:10;;;;;;;1.55;0.80;;;;;;;;;;5032529;28;20057;-65
2022/11/17 05:46:40;;;;;;;6.88;1.23;;;;;;;;;;5032496;28;20532;-65
2022/11/17 05:49:10;;;;;;;3.05;1.00;;;;;;;;;;5032392;28;20069;-65
2022/11/17 05:51:40;;;;;;;3.35;1.00;;;;;;;;;;5032636;28;20418;-66
2022/11/17 05:54:10;;;;;;;4.05;0.90;;;;;;;;;;5032331;28;20173;-65
2022/11/17 05:56:45;;;;;;;5.97;1.30;;;;;;;;;;5032458;28;20041;-65
2022/11/17 05:59:24;;;;;;;1.83;0.82;;;;;;;;;;4999378;28;20651;-66
2022/11/17 06:02:16;;;;;;;4.07;1.20;;;;;;;;;;5077348;28;20519;-65
2022/11/17 06:04:49;;;;;;;5.53;1.15;;;;;;;;;;5094772;28;20048;-65
2022/11/17 06:07:19;;;;;;;2.53;0.98;;;;;;;;;;5071565;28;20055;-65
2022/11/17 06:09:51;;;;;;;2.08;0.95;;;;;;;;;;5072124;28;20420;-66
2022/11/17 06:12:21;;;;;;;2.97;1.13;;;;;;;;;;5092001;28;20052;-66
2022/11/17 06:14:51;;;;;;;2.08;0.90;;;;;;;;;;5058470;28;20064;-65
2022/11/17 06:17:30;;;;;;;3.97;1.00;;;;;;;;;;5051443;28;20045;-65
2022/11/17 06:20:12;;;;;;;7.05;1.00;;;;;;;;;;5018728;28;20060;-65
2022/11/17 06:22:42;;;;;;;4.13;0.98;;;;;;;;;;5052007;28;20522;-66
2022/11/17 06:25:18;;;;;;;4.32;1.20;;;;;;;;;;5051902;28;20053;-66
2022/11/17 06:27:50;;;;;;;1.63;0.80;;;;;;;;;;5051663;28;20056;-66
2022/11/17 06:30:21;;;;;;;2.75;1.00;;;;;;;;;;5051597;28;20060;-65
2022/11/17 06:32:53;;;;;;;3.30;1.00;;;;;;;;;;5018332;28;20524;-65
2022/11/17 06:35:23;;;;;;;5.32;1.00;;;;;;;;;;5031453;28;20512;-65
2022/11/17 06:37:53;;;;;;;1.77;0.85;;;;;;;;;;5011552;28;20050;-65
2022/11/17 06:40:23;;;;;;;3.55;1.10;;;;;;;;;;4995250;28;20058;-65
2022/11/17 06:43:07;;;;;;;2.05;0.80;;;;;;;;;;4995523;28;20053;-66
2022/11/17 06:45:43;;;;;;;5.55;1.00;;;;;;;;;;4996784;28;20065;-65
2022/11/17 06:48:15;;;;;;;2.30;1.08;;;;;;;;;;4991903;28;20506;-66
2022/11/17 06:50:47;;;;;;;2.05;1.00;;;;;;;;;;4972469;28;20051;-67
2022/11/17 06:53:18;;;;;;;1.50;0.77;;;;;;;;;;4952390;28;20066;-65
2022/11/17 06:58:36;;;;;;;2.03;0.80;;;;;;;;;;4991921;28;20069;-66
2022/11/17 07:01:14;;;;;;;4.68;1.00;;;;;;;;;;4933673;29;20047;-66
2022/11/17 07:03:44;;;;;;;2.42;1.00;;;;;;;;;;4934052;29;20060;-65
2022/11/17 07:06:15;;;;;;;12.48;1.42;;;;;;;;;;4886525;29;20075;-66
2022/11/17 07:08:45;;;;;;;2.80;0.77;;;;;;;;;;4933696;29;20056;-65
2022/11/17 07:11:16;;;;;;;5.03;1.00;;;;;;;;;;4933519;29;20059;-66
2022/11/17 07:13:46;;;;;;;2.10;0.80;;;;;;;;;;4949074;29;20491;-65
2022/11/17 07:16:20;;;;;;;4.50;0.90;;;;;;;;;;4952809;29;20155;-65
2022/11/17 07:18:52;;;;;;;1.80;1.08;;;;;;;;;;4952714;29;20464;-65
2022/11/17 07:21:22;;;;;;;1.65;0.82;;;;;;;;;;4936985;29;20067;-66
2022/11/17 07:23:52;;;;;;;4.63;1.10;;;;;;;;;;4952626;29;20059;-65
2022/11/17 07:26:22;;;;;;;2.40;0.90;;;;;;;;;;4952642;29;20504;-64
2022/11/17 07:28:53;;;;;;;7.25;1.15;;;;;;;;;;4932440;29;20527;-65
2022/11/17 07:31:23;;;;;;;3.05;1.17;;;;;;;;;;4959118;28;20062;-64
2022/11/17 07:33:53;;;;;;;2.25;0.80;;;;;;;;;;4952134;28;20050;-65
2022/11/17 07:36:24;;;;;;;4.78;0.93;;;;;;;;;;4952408;28;20062;-65
2022/11/17 07:38:54;;;;;;;5.72;1.10;;;;;;;;;;4984773;28;20061;-65
2022/11/17 07:41:24;;;;;;;4.63;1.17;;;;;;;;;;5010647;28;20057;-65
2022/11/17 07:43:54;;;;;;;3.63;0.95;;;;;;;;;;5010246;28;20050;-66
2022/11/17 07:46:24;;;;;;;3.05;0.93;;;;;;;;;;5010551;28;20054;-64
2022/11/17 07:48:55;;;;;;;3.90;0.80;;;;;;;;;;4990522;28;20560;-65
2022/11/17 07:51:25;;;;;;;3.97;1.10;;;;;;;;;;4967746;28;20062;-64
2022/11/17 07:53:55;;;;;;;3.50;1.02;;;;;;;;;;4951914;28;20055;-64
2022/11/17 07:56:25;;;;;;;2.60;1.00;;;;;;;;;;4920255;28;20086;-65
2022/11/17 07:58:55;;;;;;;3.97;0.90;;;;;;;;;;4919921;28;20059;-65
2022/11/17 08:01:26;;;;;;;1.90;0.93;;;;;;;;;;4952074;28;20164;-65
2022/11/17 08:03:57;;;;;;;3.05;0.95;;;;;;;;;;4951796;28;20059;-65
2022/11/17 08:06:27;;;;;;;2.53;0.95;;;;;;;;;;4937601;28;20055;-65
2022/11/17 08:08:58;;;;;;;2.58;1.70;;;;;;;;;;4932106;29;20463;-67
2022/11/17 08:11:27;;;;;;;2.92;0.90;;;;;;;;;;4932544;29;20063;-65
2022/11/17 08:13:58;;;;;;;4.07;1.02;;;;;;;;;;4951404;28;20058;-66
2022/11/17 08:16:29;;;;;;;1.20;0.73;;;;;;;;;;4913368;29;20048;-65
2022/11/17 08:19:04;;;;;;;2.00;1.35;;;;;;;;;;4881978;29;20055;-66
2022/11/17 08:21:36;;;;;;;3.40;0.90;;;;;;;;;;4913725;29;20060;-65
2022/11/17 08:24:07;;;;;;;3.33;1.00;;;;;;;;;;4932261;29;20063;-65
2022/11/17 08:26:37;;;;;;;2.42;0.75;;;;;;;;;;4932383;29;20535;-66
2022/11/17 08:29:07;;;;;;;2.03;0.80;;;;;;;;;;4932098;29;20063;-67
2022/11/17 08:31:37;;;;;;;4.03;1.02;;;;;;;;;;4932469;29;20068;-65
2022/11/17 08:34:07;;;;;;;3.53;0.90;;;;;;;;;;4932236;29;20194;-65
2022/11/17 08:36:39;;;;;;;3.38;1.08;;;;;;;;;;4951513;28;20063;-65
2022/11/17 08:39:08;;;;;;;4.20;1.13;;;;;;;;;;4934735;28;20543;-66
2022/11/17 08:41:39;;;;;;;1.70;0.75;;;;;;;;;;4931945;29;20060;-65
2022/11/17 08:44:09;;;;;;;5.28;1.13;;;;;;;;;;4931974;29;20064;-65
2022/11/17 08:46:39;;;;;;;1.92;1.08;;;;;;;;;;4942700;28;20070;-65
2022/11/17 08:49:09;;;;;;;2.35;1.27;;;;;;;;;;4951247;29;20051;-66
2022/11/17 08:51:39;;;;;;;1.92;0.80;;;;;;;;;;4945486;28;20518;-66
2022/11/17 08:54:11;;;;;;;4.07;1.13;;;;;;;;;;4961320;28;20422;-65
2022/11/17 08:56:41;;;;;;;;;;;;;;;;;;4942465;28;20065;-65
2022/11/17 08:59:12;;;;;;;3.85;1.10;;;;;;;;;;4989836;28;19922;-66
2022/11/17 09:01:42;;;;;;;4.25;1.05;;;;;;;;;;4941734;28;20055;-65
2022/11/17 09:04:13;;;;;;;2.00;1.00;;;;;;;;;;4990053;28;20069;-67
2022/11/17 09:06:43;;;;;;;4.25;1.00;;;;;;;;;;4989773;28;20059;-65
2022/11/17 09:09:13;;;;;;;2.95;1.60;;;;;;;;;;4973820;28;20380;-65
2022/11/17 09:11:43;;;;;;;3.83;1.10;;;;;;;;;;4989747;28;20061;-65
2022/11/17 09:14:13;;;;;;;3.03;1.27;;;;;;;;;;4989815;28;20054;-66
2022/11/17 09:16:43;;;;;;;3.60;1.40;;;;;;;;;;4931722;29;20051;-68
2022/11/17 09:19:13;;;;;;;2.75;1.20;;;;;;;;;;4946580;28;20167;-65
2022/11/17 09:21:43;;;;;;;4.13;1.80;;;;;;;;;;4935501;29;20063;-66
2022/11/17 09:24:13;;;;;;;6.28;1.50;;;;;;;;;;4951044;29;20063;-65
2022/11/17 09:26:43;;;;;;;3.65;1.33;;;;;;;;;;4950923;28;20066;-66
2022/11/17 09:29:13;;;;;;;2.13;1.13;;;;;;;;;;4950611;28;20063;-65
2022/11/17 09:31:43;;;;;;;3.08;1.35;;;;;;;;;;4931247;29;20063;-64
2022/11/17 09:34:15;;;;;;;2.90;1.17;;;;;;;;;;4931346;29;20051;-65
2022/11/17 09:36:47;;;;;;;4.18;1.10;;;;;;;;;;4931839;29;20080;-67
2022/11/17 09:39:17;;;;;;;2.50;1.25;;;;;;;;;;4931570;29;20059;-65
2022/11/17 09:41:57;;;;;;;3.58;0.85;;;;;;;;;;4931244;29;20051;-66
2022/11/17 09:44:45;;;;;;;2.83;1.10;;;;;;;;;;4931511;29;20059;-65
2022/11/17 09:47:45;;;;;;;3.80;0.90;;;;;;;;;;4931680;29;20063;-64
2022/11/17 09:50:36;;;;;;;2.47;0.90;;;;;;;;;;4931675;29;20060;-64
2022/11/17 09:53:50;;;;;;;2.72;1.10;;;;;;;;;;4903497;29;20059;-65
2022/11/17 09:56:21;;;;;;;5.47;0.85;;;;;;;;;;4852518;29;20064;-65
2022/11/17 09:59:00;;;;;;;3.75;0.95;;;;;;;;;;4897062;29;20065;-65
2022/11/17 10:01:30;;;;;;;2.15;1.10;;;;;;;;;;4896998;29;20413;-64
2022/11/17 10:04:00;;;;;;;2.97;1.30;;;;;;;;;;4897131;29;20068;-64
2022/11/17 10:06:31;;;;;;;3.38;1.00;;;;;;;;;;4903242;29;20060;-65
2022/11/17 10:09:13;;;;;;;3.05;0.90;;;;;;;;;;4915684;29;20531;-63
2022/11/17 10:11:45;;;;;;;1.90;0.88;;;;;;;;;;4923749;29;20056;-63
2022/11/17 10:14:19;;;;;;;3.15;1.13;;;;;;;;;;4918920;29;20063;-63
2022/11/17 10:16:55;;;;;;;2.50;1.00;;;;;;;;;;4951557;28;20054;-63
2022/11/17 10:19:31;;;;;;;3.47;1.05;;;;;;;;;;4957458;28;20046;-64
2022/11/17 10:22:01;;;;;;;4.72;1.40;;;;;;;;;;4973015;28;20057;-63
2022/11/17 10:24:38;;;;;;;4.68;1.35;;;;;;;;;;4941015;28;20058;-63
2022/11/17 10:27:19;;;;;;;4.32;1.00;;;;;;;;;;5012195;28;20060;-63
2022/11/17 10:30:01;;;;;;;4.38;0.90;;;;;;;;;;5051629;28;20048;-63
2022/11/17 10:32:37;;;;;;;5.45;1.50;;;;;;;;;;5071413;28;20396;-63
2022/11/17 10:35:22;;;;;;;2.22;0.75;;;;;;;;;;5054735;28;20048;-63
2022/11/17 10:38:00;;;;;;;2.78;1.00;;;;;;;;;;5071674;28;20052;-62
2022/11/17 10:40:45;;;;;;;3.42;0.88;;;;;;;;;;5038030;28;20056;-63
2022/11/17 10:43:16;;;;;;;4.40;1.25;;;;;;;;;;5055447;28;20044;-63
2022/11/17 10:45:59;;;;;;;17.88;6.60;;;;;;;;;;5034489;28;20060;-63
2022/11/17 10:48:35;;;;;;;71.30;29.27;;;;;;;;;;5051317;28;20064;-63
2022/11/17 10:51:23;;;;;;;15.45;7.63;;;;;;;;;;5011275;28;20498;-65
2022/11/17 10:54:31;;;;;;;4.85;1.30;;;;;;;;;;5011451;28;20054;-62
2022/11/17 10:57:07;;;;;;;3.67;0.90;;;;;;;;;;4952893;29;20055;-64
2022/11/17 10:59:47;;;;;;;4.28;0.80;;;;;;;;;;4933518;29;20090;-62
2022/11/17 11:02:35;;;;;;;2.00;0.90;;;;;;;;;;4932871;29;20059;-63
2022/11/17 11:05:16;;;;;;;3.25;1.00;;;;;;;;;;4933838;29;20064;-63
2022/11/17 11:07:47;;;;;;;1.63;0.60;;;;;;;;;;4914758;29;20048;-63
2022/11/17 11:10:35;;;;;;;1.45;0.77;;;;;;;;;;4914218;29;20067;-63
2022/11/17 11:13:35;;;;;;;1.27;0.57;;;;;;;;;;4914438;29;20048;-63
2022/11/17 11:16:08;;;;;;;4.30;1.20;;;;;;;;;;4898729;29;20059;-63
2022/11/17 11:18:38;;;;;;;1.98;0.77;;;;;;;;;;4898675;29;20060;-63
2022/11/17 11:21:31;;;;;;;3.42;1.23;;;;;;;;;;4914483;29;20449;-63
2022/11/17 11:24:29;;;;;;;1.52;0.57;;;;;;;;;;4900348;29;20056;-62
2022/11/17 11:27:23;;;;;;;2.05;0.73;;;;;;;;;;4934672;29;20053;-62
2022/11/17 11:29:58;;;;;;;1.45;0.52;;;;;;;;;;4914320;29;20433;-63
2022/11/17 11:33:05;;;;;;;1.77;0.52;;;;;;;;;;4914027;29;20056;-63
2022/11/17 11:35:54;;;;;;;1.85;0.60;;;;;;;;;;4914239;29;20516;-62
2022/11/17 11:38:27;;;;;;;2.42;0.52;;;;;;;;;;4932608;29;20082;-63
2022/11/17 11:41:03;;;;;;;1.35;0.57;;;;;;;;;;4901624;29;20546;-62
2022/11/17 11:43:36;;;;;;;1.85;0.80;;;;;;;;;;4933202;29;20059;-62
2022/11/17 11:46:15;;;;;;;1.77;0.75;;;;;;;;;;4962913;28;20529;-63
2022/11/17 11:48:48;;;;;;;2.63;0.52;;;;;;;;;;4971331;28;20095;-63
2022/11/17 11:51:24;;;;;;;3.42;0.90;;;;;;;;;;4985603;28;20550;-63
2022/11/17 11:54:09;;;;;;;0.98;0.55;;;;;;;;;;4990798;28;20431;-63
2022/11/17 11:56:44;;;;;;;2.80;0.88;;;;;;;;;;4958549;28;20081;-65
2022/11/17 11:59:30;;;;;;;3.30;1.00;;;;;;;;;;4990580;28;20422;-63
2022/11/17 12:02:26;;;;;;;1.27;0.65;;;;;;;;;;4974619;28;20534;-64
2022/11/17 12:05:16;;;;;;;3.72;0.80;;;;;;;;;;4986804;28;20050;-64
2022/11/17 12:08:11;;;;;;;3.33;1.10;;;;;;;;;;5002492;28;20108;-63
2022/11/17 12:10:49;;;;;;;1.63;0.60;;;;;;;;;;4990168;28;20054;-62
2022/11/17 12:13:22;;;;;;;1.10;0.60;;;;;;;;;;4954531;28;20087;-63
2022/11/17 12:16:16;;;;;;;4.22;0.60;;;;;;;;;;4971029;28;20586;-63
2022/11/17 12:18:46;;;;;;;1.30;0.82;;;;;;;;;;4955007;28;20062;-63
2022/11/17 12:21:26;;;;;;;2.63;0.60;;;;;;;;;;4970949;28;20050;-63
2022/11/17 12:24:08;;;;;;;2.72;0.60;;;;;;;;;;4970936;28;20054;-63
2022/11/17 12:26:39;;;;;;;1.92;0.70;;;;;;;;;;4970928;28;20050;-63
2022/11/17 12:29:21;;;;;;;3.05;0.70;;;;;;;;;;4970903;28;20067;-63
2022/11/17 12:31:54;;;;;;;1.55;0.70;;;;;;;;;;4990332;28;20061;-64
2022/11/17 12:34:36;;;;;;;2.00;0.90;;;;;;;;;;4990295;28;20042;-63
2022/11/17 12:37:12;;;;;;;2.03;0.80;;;;;;;;;;4989884;28;20050;-62
2022/11/17 12:40:06;;;;;;;3.28;1.10;;;;;;;;;;4974078;28;20502;-63
2022/11/17 12:43:15;;;;;;;4.32;0.85;;;;;;;;;;4990027;28;20085;-63
2022/11/17 12:46:35;;;;;;;1.73;0.70;;;;;;;;;;4990120;28;20173;-63
2022/11/17 12:49:24;;;;;;;3.17;0.77;;;;;;;;;;4947655;29;20551;-63
2022/11/17 12:52:06;;;;;;;1.45;0.95;;;;;;;;;;4968231;28;20058;-64
2022/11/17 12:54:53;;;;;;;2.30;0.60;;;;;;;;;;4970758;28;20319;-63
2022/11/17 12:57:30;;;;;;;2.25;0.60;;;;;;;;;;4970672;28;20063;-63
2022/11/17 13:00:16;;;;;;;1.55;0.73;;;;;;;;;;4922774;28;20077;-63
2022/11/17 13:03:09;;;;;;;2.13;0.75;;;;;;;;;;4951083;28;20054;-64
2022/11/17 13:05:39;;;;;;;1.98;1.27;;;;;;;;;;4951169;29;20389;-63
2022/11/17 13:08:23;;;;;;;0.93;0.47;;;;;;;;;;4903664;29;20063;-64
2022/11/17 13:11:04;;;;;;;3.17;0.77;;;;;;;;;;4919245;29;20051;-64
2022/11/17 13:13:34;;;;;;;4.50;0.95;;;;;;;;;;4950907;28;20051;-63
2022/11/17 13:16:21;;;;;;;3.33;0.80;;;;;;;;;;4931682;29;20048;-64
2022/11/17 13:18:51;;;;;;;4.45;1.45;;;;;;;;;;4919312;29;20059;-63
2022/11/17 13:21:32;;;;;;;1.80;0.70;;;;;;;;;;4919557;29;20071;-63
2022/11/17 13:24:02;;;;;;;2.15;0.70;;;;;;;;;;4951218;28;20058;-63
2022/11/17 13:26:37;;;;;;;3.03;0.70;;;;;;;;;;4972273;28;20058;-63
2022/11/17 13:29:12;;;;;;;3.40;0.68;;;;;;;;;;4997161;28;20050;-63
2022/11/17 13:31:42;;;;;;;2.45;0.90;;;;;;;;;;5012946;28;20045;-63
2022/11/17 13:34:13;;;;;;;2.00;0.70;;;;;;;;;;4980272;28;20425;-63
2022/11/17 13:36:55;;;;;;;4.97;0.70;;;;;;;;;;5013050;28;20052;-65
2022/11/17 13:39:27;;;;;;;1.88;1.00;;;;;;;;;;5018468;28;20057;-65
2022/11/17 13:42:00;;;;;;;1.23;0.60;;;;;;;;;;5072625;28;20065;-63
2022/11/17 13:44:32;;;;;;;2.35;0.98;;;;;;;;;;5052518;28;20045;-63
2022/11/17 13:47:38;;;;;;;3.53;0.77;;;;;;;;;;5032407;28;20056;-62
2022/11/17 13:50:33;;;;;;;3.28;1.05;;;;;;;;;;4973582;28;20388;-64
2022/11/17 13:53:10;;;;;;;4.28;0.95;;;;;;;;;;4922242;29;20800;-63
2022/11/17 13:55:45;;;;;;;1.95;0.70;;;;;;;;;;4906813;29;20515;-64
2022/11/17 13:58:19;;;;;;;2.13;0.77;;;;;;;;;;4954286;29;20067;-63
2022/11/17 14:00:57;;;;;;;1.30;0.60;;;;;;;;;;4918872;29;20156;-62
2022/11/17 14:03:38;;;;;;;1.58;0.65;;;;;;;;;;4903446;29;20063;-64
2022/11/17 14:06:13;;;;;;;2.58;0.80;;;;;;;;;;4934727;29;20063;-62
2022/11/17 14:09:02;;;;;;;1.85;0.65;;;;;;;;;;4935097;29;20504;-67
2022/11/17 14:11:32;;;;;;;5.05;0.90;;;;;;;;;;4918358;29;20074;-62
2022/11/17 14:14:12;;;;;;;5.07;0.60;;;;;;;;;;4934845;29;20059;-63
2022/11/17 14:16:45;;;;;;;2.00;0.73;;;;;;;;;;4934723;29;20060;-63
2022/11/17 14:19:16;;;;;;;3.70;0.70;;;;;;;;;;4919182;29;20459;-63
2022/11/17 14:22:07;;;;;;;3.08;0.85;;;;;;;;;;4928046;29;20076;-64
2022/11/17 14:24:41;;;;;;;2.90;0.80;;;;;;;;;;4934338;29;20047;-63
2022/11/17 14:27:33;;;;;;;1.45;0.63;;;;;;;;;;4949061;28;20063;-63
2022/11/17 14:30:05;;;;;;;3.53;0.70;;;;;;;;;;4958066;28;20063;-63
2022/11/17 14:32:35;;;;;;;4.47;0.50;;;;;;;;;;4925051;28;20062;-64
2022/11/17 14:35:06;;;;;;;1.02;0.60;;;;;;;;;;4973194;28;20042;-63
2022/11/17 14:37:36;;;;;;;2.22;0.60;;;;;;;;;;4972751;28;20062;-63
2022/11/17 14:40:17;;;;;;;1.50;0.80;;;;;;;;;;4972934;28;20070;-64
2022/11/17 14:42:47;;;;;;;2.50;0.50;;;;;;;;;;4974551;28;20051;-63
2022/11/17 14:45:17;;;;;;;1.00;0.47;;;;;;;;;;4992262;28;20090;-63
2022/11/17 14:47:48;;;;;;;3.63;1.70;;;;;;;;;;4992154;28;20061;-63
2022/11/17 14:50:18;;;;;;;1.40;0.68;;;;;;;;;;4953019;29;20058;-63
2022/11/17 14:52:49;;;;;;;3.58;0.63;;;;;;;;;;4953399;29;20070;-62
2022/11/17 14:55:20;;;;;;;1.73;0.70;;;;;;;;;;4930677;29;20480;-63
2022/11/17 14:57:51;;;;;;;1.17;0.52;;;;;;;;;;4915141;29;20059;-64
2022/11/17 15:00:22;;;;;;;2.53;0.77;;;;;;;;;;4912501;29;20085;-66
2022/11/17 15:02:52;;;;;;;1.45;0.80;;;;;;;;;;4942240;29;20051;-64
2022/11/17 15:05:22;;;;;;;2.22;0.80;;;;;;;;;;4937080;29;20055;-63
2022/11/17 15:07:52;;;;;;;1.02;0.68;;;;;;;;;;4971804;28;20046;-63
2022/11/17 15:10:22;;;;;;;3.53;0.60;;;;;;;;;;4971892;28;20047;-63
2022/11/17 15:12:52;;;;;;;2.20;0.75;;;;;;;;;;4956350;28;20054;-62
2022/11/17 15:15:22;;;;;;;2.25;0.55;;;;;;;;;;4939692;28;20102;-63
2022/11/17 15:17:53;;;;;;;2.50;0.80;;;;;;;;;;4972160;28;20058;-62
2022/11/17 15:20:23;;;;;;;1.45;0.60;;;;;;;;;;4972077;28;20054;-62
2022/11/17 15:22:52;;;;;;;0.93;0.47;;;;;;;;;;4940582;28;20062;-64
2022/11/17 15:25:30;;;;;;;1.13;0.52;;;;;;;;;;4920678;29;20168;-63
2022/11/17 15:28:00;;;;;;;1.52;0.50;;;;;;;;;;4952420;28;20411;-63
2022/11/17 15:30:30;;;;;;;1.90;0.47;;;;;;;;;;4952640;28;20059;-63
2022/11/17 15:33:00;;;;;;;3.10;0.60;;;;;;;;;;4952451;28;20074;-64
2022/11/17 15:35:31;;;;;;;1.50;0.60;;;;;;;;;;4905102;28;20179;-63
2022/11/17 15:38:01;;;;;;;3.92;0.50;;;;;;;;;;4952351;28;20066;-62
2022/11/17 15:40:31;;;;;;;3.45;0.50;;;;;;;;;;4961877;28;20066;-63
2022/11/17 15:43:04;;;;;;;1.88;0.55;;;;;;;;;;4971614;28;20526;-63
2022/11/17 15:45:36;;;;;;;8.60;0.70;;;;;;;;;;4971748;28;20086;-63
2022/11/17 15:48:07;;;;;;;1.58;0.57;;;;;;;;;;4959522;28;20062;-64
2022/11/17 15:50:36;;;;;;;3.45;0.63;;;;;;;;;;5010568;28;20062;-64
2022/11/17 15:53:06;;;;;;;1.80;0.68;;;;;;;;;;4992105;28;20198;-63
2022/11/17 15:55:38;;;;;;;0.90;0.50;;;;;;;;;;5010642;28;20057;-62
2022/11/17 15:58:08;;;;;;;;;;;;;;;;;;5010988;28;20077;-63
2022/11/17 16:00:41;;;;;;;2.65;0.80;;;;;;;;;;5010643;28;20305;-63